createdAt,value
2018-12-12T00:00:16.610Z,0.00
2018-12-12T00:01:16.600Z,0.00
2018-12-12T00:02:16.594Z,0.00
2018-12-12T00:03:16.617Z,0.00
2018-12-12T00:04:16.564Z,0.00
2018-12-12T00:05:16.555Z,0.00
2018-12-12T00:06:16.539Z,0.00
2018-12-12T00:07:16.528Z,0.00
2018-12-12T00:08:16.549Z,0.00
2018-12-12T00:09:16.511Z,0.00
2018-12-12T00:10:16.507Z,0.00
2018-12-12T00:11:16.487Z,0.00
2018-12-12T00:12:16.480Z,0.00
2018-12-12T00:13:16.482Z,0.00
2018-12-12T00:14:16.462Z,0.00
2018-12-12T00:15:16.447Z,0.00
2018-12-12T00:16:16.458Z,0.00
2018-12-12T00:17:16.424Z,0.00
2018-12-12T00:18:16.431Z,0.00
2018-12-12T00:19:16.398Z,0.00
2018-12-12T00:20:16.395Z,0.00
2018-12-12T00:21:16.385Z,0.00
2018-12-12T00:22:16.375Z,0.00
2018-12-12T00:23:16.383Z,0.00
2018-12-12T00:24:16.351Z,0.00
2018-12-12T00:25:16.348Z,0.00
2018-12-12T00:26:16.332Z,0.00
2018-12-12T00:27:16.315Z,0.00
2018-12-12T00:28:16.327Z,0.00
2018-12-12T00:29:16.295Z,0.00
2018-12-12T00:30:16.285Z,0.00
2018-12-12T00:31:16.272Z,0.00
2018-12-12T00:32:16.265Z,0.00
2018-12-12T00:33:16.269Z,0.00
2018-12-12T00:34:16.237Z,0.00
2018-12-12T00:35:16.236Z,0.00
2018-12-12T00:36:16.219Z,0.00
2018-12-12T00:37:16.211Z,0.00
2018-12-12T00:38:16.217Z,0.00
2018-12-12T00:39:16.193Z,0.00
2018-12-12T00:40:16.175Z,0.00
2018-12-12T00:41:16.183Z,0.00
2018-12-12T00:42:16.159Z,0.00
2018-12-12T00:43:16.163Z,0.00
2018-12-12T00:44:16.145Z,0.00
2018-12-12T00:45:16.125Z,0.00
2018-12-12T00:46:16.110Z,0.00
2018-12-12T00:47:16.100Z,0.00
2018-12-12T00:48:16.127Z,0.00
2018-12-12T00:49:16.079Z,0.00
2018-12-12T00:50:16.079Z,0.00
2018-12-12T00:51:16.070Z,0.00
2018-12-12T00:52:16.046Z,0.00
2018-12-12T00:53:16.049Z,0.00
2018-12-12T00:54:16.051Z,0.00
2018-12-12T00:55:16.017Z,0.00
2018-12-12T00:56:16.013Z,0.00
2018-12-12T00:57:15.991Z,0.00
2018-12-12T00:58:15.982Z,0.00
2018-12-12T00:59:15.989Z,0.00
2018-12-12T01:00:15.959Z,0.00
2018-12-12T01:01:15.953Z,0.00
2018-12-12T01:02:15.961Z,0.00
2018-12-12T01:03:15.930Z,0.00
2018-12-12T01:04:15.934Z,0.00
2018-12-12T01:05:15.914Z,0.00
2018-12-12T01:06:15.902Z,0.00
2018-12-12T01:07:15.892Z,0.00
2018-12-12T01:08:15.880Z,0.00
2018-12-12T01:09:15.900Z,0.00
2018-12-12T01:10:15.858Z,0.00
2018-12-12T01:11:15.843Z,0.00
2018-12-12T01:12:15.835Z,0.00
2018-12-12T01:13:15.827Z,0.00
2018-12-12T01:14:15.919Z,0.00
2018-12-12T01:15:15.813Z,0.00
2018-12-12T01:16:15.796Z,0.00
2018-12-12T01:17:15.785Z,0.00
2018-12-12T01:18:15.773Z,0.00
2018-12-12T01:19:15.785Z,0.00
2018-12-12T01:20:15.764Z,0.00
2018-12-12T01:21:15.735Z,0.00
2018-12-12T01:22:15.731Z,0.00
2018-12-12T01:23:15.723Z,0.00
2018-12-12T01:24:15.729Z,0.00
2018-12-12T01:25:15.695Z,0.00
2018-12-12T01:26:15.683Z,0.00
2018-12-12T01:27:15.674Z,0.00
2018-12-12T01:28:15.661Z,0.00
2018-12-12T01:29:15.692Z,0.00
2018-12-12T01:30:15.643Z,0.00
2018-12-12T01:31:15.640Z,0.00
2018-12-12T01:32:15.624Z,0.00
2018-12-12T01:33:16.312Z,0.00
2018-12-12T01:34:15.633Z,0.00
2018-12-12T01:35:15.598Z,0.00
2018-12-12T01:36:15.578Z,0.00
2018-12-12T01:37:15.577Z,0.00
2018-12-12T01:38:16.309Z,0.00
2018-12-12T01:39:15.543Z,0.00
2018-12-12T01:40:15.566Z,0.00
2018-12-12T01:41:15.529Z,0.00
2018-12-12T01:42:15.523Z,0.00
2018-12-12T01:43:15.501Z,0.00
2018-12-12T01:44:15.497Z,0.00
2018-12-12T01:45:15.505Z,0.00
2018-12-12T01:46:15.471Z,0.00
2018-12-12T01:47:15.458Z,0.00
2018-12-12T01:48:15.457Z,0.00
2018-12-12T01:49:15.438Z,0.00
2018-12-12T01:50:15.450Z,0.00
2018-12-12T01:51:15.421Z,0.00
2018-12-12T01:52:15.410Z,0.00
2018-12-12T01:53:15.390Z,0.00
2018-12-12T01:54:15.395Z,0.00
2018-12-12T01:55:15.400Z,0.00
2018-12-12T01:56:15.405Z,0.00
2018-12-12T01:57:15.353Z,0.00
2018-12-12T01:58:15.346Z,0.00
2018-12-12T01:59:15.334Z,0.00
2018-12-12T02:00:15.362Z,0.00
2018-12-12T02:01:16.278Z,0.00
2018-12-12T02:02:15.306Z,0.00
2018-12-12T02:03:15.312Z,0.00
2018-12-12T02:04:16.298Z,0.00
2018-12-12T02:05:15.308Z,0.00
2018-12-12T02:06:15.260Z,0.00
2018-12-12T02:07:15.249Z,0.00
2018-12-12T02:08:15.241Z,0.00
2018-12-12T02:09:15.223Z,0.00
2018-12-12T02:10:15.227Z,0.00
2018-12-12T02:11:15.237Z,0.00
2018-12-12T02:12:15.192Z,0.00
2018-12-12T02:13:15.182Z,0.00
2018-12-12T02:14:15.199Z,0.00
2018-12-12T02:15:15.184Z,0.00
2018-12-12T02:16:15.148Z,0.00
2018-12-12T02:17:15.144Z,0.00
2018-12-12T02:18:15.132Z,0.00
2018-12-12T02:19:22.397Z,0.00
2018-12-12T02:20:15.178Z,0.00
2018-12-12T02:21:15.103Z,0.00
2018-12-12T02:22:15.090Z,0.00
2018-12-12T02:23:15.075Z,0.00
2018-12-12T02:24:15.064Z,0.00
2018-12-12T02:25:15.052Z,0.00
2018-12-12T02:26:15.069Z,0.00
2018-12-12T02:27:15.034Z,0.00
2018-12-12T02:28:15.031Z,0.00
2018-12-12T02:29:15.026Z,0.00
2018-12-12T02:31:24.075Z,0.00
2018-12-12T02:32:24.068Z,0.00
2018-12-12T02:33:24.039Z,0.00
2018-12-12T02:34:28.970Z,0.00
2018-12-12T02:35:25.062Z,0.00
2018-12-12T02:36:24.032Z,0.00
2018-12-12T02:37:24.004Z,0.00
2018-12-12T02:38:45.468Z,0.00
2018-12-12T02:39:39.583Z,0.00
2018-12-12T02:40:23.967Z,0.00
2018-12-12T02:41:23.987Z,0.00
2018-12-12T02:42:23.947Z,0.00
2018-12-12T02:43:23.939Z,0.00
2018-12-12T02:44:23.920Z,0.00
2018-12-12T02:45:23.911Z,0.00
2018-12-12T02:46:23.915Z,0.00
2018-12-12T02:47:23.893Z,0.00
2018-12-12T02:48:23.885Z,0.00
2018-12-12T02:49:23.871Z,0.00
2018-12-12T02:50:23.873Z,0.00
2018-12-12T02:51:48.985Z,0.00
2018-12-12T02:52:38.501Z,0.00
2018-12-12T02:53:23.838Z,0.00
2018-12-12T02:54:23.817Z,0.00
2018-12-12T02:55:23.814Z,0.00
2018-12-12T02:56:23.840Z,0.00
2018-12-12T02:57:23.796Z,0.00
2018-12-12T02:58:23.789Z,0.00
2018-12-12T02:59:23.777Z,0.00
2018-12-12T03:00:23.757Z,0.00
2018-12-12T03:01:29.082Z,0.00
2018-12-12T03:03:45.681Z,0.00
2018-12-12T03:04:45.651Z,0.00
2018-12-12T03:05:45.639Z,0.00
2018-12-12T03:06:45.630Z,0.00
2018-12-12T03:07:45.641Z,0.00
2018-12-12T03:08:45.613Z,0.00
2018-12-12T03:09:45.601Z,0.00
2018-12-12T03:10:45.583Z,0.00
2018-12-12T03:11:45.603Z,0.00
2018-12-12T03:12:45.585Z,0.00
2018-12-12T03:14:54.714Z,0.00
2018-12-12T03:15:54.717Z,0.00
2018-12-12T03:16:54.722Z,0.00
2018-12-12T03:17:54.683Z,0.00
2018-12-12T03:18:54.678Z,0.00
2018-12-12T03:19:54.665Z,0.00
2018-12-12T03:20:54.648Z,0.00
2018-12-12T03:21:54.654Z,0.00
2018-12-12T03:22:54.662Z,0.00
2018-12-12T03:23:54.627Z,0.00
2018-12-12T03:24:54.685Z,0.00
2018-12-12T03:25:54.592Z,0.00
2018-12-12T03:28:16.586Z,0.00
2018-12-12T03:29:16.578Z,0.00
2018-12-12T03:30:16.573Z,0.00
2018-12-12T03:31:16.643Z,0.00
2018-12-12T03:32:16.560Z,0.00
2018-12-12T03:33:16.538Z,0.00
2018-12-12T03:35:26.858Z,0.00
2018-12-12T03:36:26.842Z,0.00
2018-12-12T03:37:26.845Z,0.00
2018-12-12T03:38:26.828Z,0.00
2018-12-12T03:39:26.830Z,0.00
2018-12-12T03:41:36.638Z,0.00
2018-12-12T03:42:36.642Z,0.00
2018-12-12T03:43:36.607Z,0.00
2018-12-12T03:44:36.591Z,0.00
2018-12-12T03:45:36.604Z,0.00
2018-12-12T03:46:36.601Z,0.00
2018-12-12T03:47:36.580Z,0.00
2018-12-12T03:48:36.837Z,0.00
2018-12-12T03:49:36.535Z,0.00
2018-12-12T03:50:36.571Z,0.00
2018-12-12T03:52:50.233Z,0.00
2018-12-12T03:53:50.206Z,0.00
2018-12-12T03:54:50.196Z,0.00
2018-12-12T03:55:50.202Z,0.00
2018-12-12T03:56:50.190Z,0.00
2018-12-12T03:58:08.567Z,0.00
2018-12-12T03:58:50.150Z,0.00
2018-12-12T04:01:01.045Z,0.00
2018-12-12T04:02:01.014Z,0.00
2018-12-12T04:03:01.028Z,0.00
2018-12-12T04:04:00.992Z,0.00
2018-12-12T04:05:00.990Z,0.00
2018-12-12T04:06:00.978Z,0.00
2018-12-12T04:07:00.972Z,0.00
2018-12-12T04:08:00.982Z,0.00
2018-12-12T04:09:00.958Z,0.00
2018-12-12T04:10:00.930Z,0.00
2018-12-12T04:11:00.919Z,0.00
2018-12-12T04:12:00.908Z,0.00
2018-12-12T04:13:00.914Z,0.00
2018-12-12T04:14:00.932Z,0.00
2018-12-12T04:15:00.878Z,0.00
2018-12-12T04:16:00.867Z,0.00
2018-12-12T04:17:00.860Z,0.00
2018-12-12T04:18:00.846Z,0.00
2018-12-12T04:19:00.854Z,0.00
2018-12-12T04:21:09.866Z,0.00
2018-12-12T04:22:09.852Z,0.00
2018-12-12T04:23:10.786Z,0.00
2018-12-12T04:24:09.877Z,0.00
2018-12-12T04:25:09.913Z,0.00
2018-12-12T04:26:09.814Z,0.00
2018-12-12T04:27:09.797Z,0.00
2018-12-12T04:28:09.796Z,0.00
2018-12-12T04:29:09.801Z,0.00
2018-12-12T04:30:09.774Z,0.00
2018-12-12T04:32:38.817Z,0.00
2018-12-12T04:33:38.321Z,0.00
2018-12-12T04:34:38.286Z,0.00
2018-12-12T04:36:50.516Z,0.00
2018-12-12T04:37:50.515Z,0.00
2018-12-12T04:38:50.509Z,0.00
2018-12-12T04:39:50.493Z,0.00
2018-12-12T04:40:50.476Z,0.00
2018-12-12T04:41:50.481Z,0.00
2018-12-12T04:42:50.458Z,0.00
2018-12-12T04:43:50.452Z,0.00
2018-12-12T04:44:50.435Z,0.00
2018-12-12T04:45:50.420Z,0.00
2018-12-12T04:46:50.423Z,0.00
2018-12-12T04:47:51.048Z,0.00
2018-12-12T04:49:13.315Z,0.00
2018-12-12T04:49:50.425Z,0.00
2018-12-12T04:50:50.376Z,0.00
2018-12-12T04:53:22.812Z,0.00
2018-12-12T04:54:22.847Z,0.00
2018-12-12T04:55:22.785Z,0.00
2018-12-12T04:56:22.774Z,0.00
2018-12-12T04:57:22.770Z,0.00
2018-12-12T04:58:22.752Z,0.00
2018-12-12T04:59:22.767Z,0.00
2018-12-12T05:00:22.735Z,0.00
2018-12-12T05:01:22.725Z,0.00
2018-12-12T05:02:22.720Z,0.00
2018-12-12T05:03:22.708Z,0.00
2018-12-12T05:05:32.934Z,0.00
2018-12-12T05:06:32.913Z,0.00
2018-12-12T05:07:32.898Z,0.00
2018-12-12T05:08:32.896Z,0.00
2018-12-12T05:09:32.902Z,0.00
2018-12-12T05:10:32.870Z,0.00
2018-12-12T05:11:32.870Z,0.00
2018-12-12T05:12:32.850Z,0.00
2018-12-12T05:13:32.841Z,0.00
2018-12-12T05:14:32.840Z,0.00
2018-12-12T05:15:32.826Z,0.00
2018-12-12T05:16:32.806Z,0.00
2018-12-12T05:17:32.797Z,0.00
2018-12-12T05:18:32.785Z,0.00
2018-12-12T05:20:48.925Z,0.00
2018-12-12T05:21:48.910Z,0.00
2018-12-12T05:22:48.912Z,0.00
2018-12-12T05:23:48.882Z,0.00
2018-12-12T05:24:48.892Z,0.00
2018-12-12T05:25:48.866Z,0.00
2018-12-12T05:26:48.856Z,0.00
2018-12-12T05:28:58.756Z,0.00
2018-12-12T05:29:58.753Z,0.00
2018-12-12T05:30:58.748Z,0.00
2018-12-12T05:31:58.732Z,0.00
2018-12-12T05:32:58.740Z,0.00
2018-12-12T05:33:58.688Z,0.00
2018-12-12T05:34:58.701Z,0.00
2018-12-12T05:35:58.668Z,0.00
2018-12-12T05:37:21.812Z,0.00
2018-12-12T05:37:59.651Z,0.00
2018-12-12T05:38:58.664Z,0.00
2018-12-12T05:39:58.648Z,0.00
2018-12-12T05:40:58.614Z,0.00
2018-12-12T05:42:00.312Z,0.00
2018-12-12T05:42:58.587Z,0.00
2018-12-12T05:43:58.592Z,0.00
2018-12-12T05:44:58.596Z,0.00
2018-12-12T05:45:58.560Z,0.00
2018-12-12T05:46:58.554Z,0.00
2018-12-12T05:47:58.538Z,0.00
2018-12-12T05:48:58.532Z,0.00
2018-12-12T05:49:58.546Z,0.00
2018-12-12T05:50:58.510Z,0.00
2018-12-12T05:51:58.494Z,0.00
2018-12-12T05:52:58.487Z,0.00
2018-12-12T05:53:58.474Z,0.00
2018-12-12T05:54:58.582Z,0.00
2018-12-12T05:56:02.425Z,0.00
2018-12-12T05:56:59.370Z,0.00
2018-12-12T05:58:00.306Z,0.00
2018-12-12T05:58:58.420Z,0.00
2018-12-12T05:59:59.834Z,0.00
2018-12-12T06:00:59.310Z,0.00
2018-12-12T06:01:58.538Z,0.00
2018-12-12T06:02:59.824Z,0.00
2018-12-12T06:03:58.380Z,0.00
2018-12-12T06:05:59.374Z,0.00
2018-12-12T06:06:58.374Z,0.00
2018-12-12T06:07:58.386Z,0.00
2018-12-12T06:08:58.316Z,0.00
2018-12-12T06:09:58.301Z,0.00
2018-12-12T06:10:58.310Z,0.00
2018-12-12T06:11:58.288Z,0.00
2018-12-12T06:12:58.279Z,0.00
2018-12-12T06:13:58.262Z,0.00
2018-12-12T06:14:58.871Z,0.00
2018-12-12T06:15:58.272Z,0.00
2018-12-12T06:16:58.231Z,0.00
2018-12-12T06:17:58.226Z,0.00
2018-12-12T06:18:58.206Z,0.00
2018-12-12T06:19:58.202Z,0.00
2018-12-12T06:20:59.872Z,0.00
2018-12-12T06:21:58.176Z,0.00
2018-12-12T06:22:58.169Z,0.00
2018-12-12T06:23:58.159Z,0.00
2018-12-12T06:24:58.147Z,0.00
2018-12-12T06:25:58.215Z,0.00
2018-12-12T06:26:58.122Z,0.00
2018-12-12T06:27:58.122Z,0.00
2018-12-12T06:28:58.097Z,0.00
2018-12-12T06:29:58.129Z,0.00
2018-12-12T06:30:58.105Z,4.00
2018-12-12T06:31:58.064Z,4.00
2018-12-12T06:32:58.063Z,4.00
2018-12-12T06:33:58.049Z,0.00
2018-12-12T06:34:58.099Z,0.00
2018-12-12T06:35:58.050Z,4.00
2018-12-12T06:36:58.018Z,4.00
2018-12-12T06:37:58.004Z,4.00
2018-12-12T06:38:57.992Z,4.00
2018-12-12T06:39:57.985Z,4.00
2018-12-12T06:40:57.987Z,4.00
2018-12-12T06:41:57.959Z,4.00
2018-12-12T06:42:57.949Z,8.00
2018-12-12T06:43:57.946Z,8.00
2018-12-12T06:44:57.933Z,8.00
2018-12-12T06:45:57.939Z,12.00
2018-12-12T06:46:57.921Z,12.00
2018-12-12T06:47:57.903Z,12.00
2018-12-12T06:48:57.943Z,16.00
2018-12-12T06:49:57.873Z,12.00
2018-12-12T06:50:57.880Z,16.00
2018-12-12T06:51:57.855Z,20.00
2018-12-12T06:52:57.855Z,20.00
2018-12-12T06:53:57.839Z,28.00
2018-12-12T06:54:57.855Z,28.00
2018-12-12T06:55:57.835Z,32.00
2018-12-12T06:56:57.817Z,32.00
2018-12-12T06:57:57.792Z,36.00
2018-12-12T06:58:57.786Z,40.00
2018-12-12T06:59:57.763Z,44.00
2018-12-12T07:00:57.772Z,44.00
2018-12-12T07:01:57.744Z,52.00
2018-12-12T07:02:57.735Z,56.00
2018-12-12T07:03:57.730Z,60.00
2018-12-12T07:04:57.725Z,68.00
2018-12-12T07:05:57.728Z,76.00
2018-12-12T07:06:57.720Z,84.00
2018-12-12T07:07:57.683Z,92.00
2018-12-12T07:08:57.678Z,100.00
2018-12-12T07:09:57.676Z,112.00
2018-12-12T07:10:57.651Z,116.00
2018-12-12T07:11:57.671Z,116.00
2018-12-12T07:12:57.628Z,120.00
2018-12-12T07:13:57.635Z,128.00
2018-12-12T07:14:57.604Z,140.00
2018-12-12T07:15:57.606Z,148.00
2018-12-12T07:16:57.611Z,160.00
2018-12-12T07:17:57.573Z,180.00
2018-12-12T07:18:57.567Z,188.00
2018-12-12T07:19:57.556Z,196.00
2018-12-12T07:20:57.549Z,208.00
2018-12-12T07:21:57.563Z,216.00
2018-12-12T07:22:57.525Z,224.00
2018-12-12T07:23:57.522Z,240.00
2018-12-12T07:24:57.501Z,256.00
2018-12-12T07:25:57.492Z,268.00
2018-12-12T07:26:57.573Z,276.00
2018-12-12T07:27:57.472Z,288.00
2018-12-12T07:28:57.456Z,292.00
2018-12-12T07:29:57.442Z,292.00
2018-12-12T07:30:57.436Z,304.00
2018-12-12T07:31:57.444Z,320.00
2018-12-12T07:32:57.420Z,336.00
2018-12-12T07:34:00.935Z,344.00
2018-12-12T07:34:57.389Z,360.00
2018-12-12T07:35:59.568Z,368.00
2018-12-12T07:36:57.393Z,384.00
2018-12-12T07:37:57.360Z,400.00
2018-12-12T07:38:57.355Z,420.00
2018-12-12T07:39:57.343Z,440.00
2018-12-12T07:40:57.331Z,456.00
2018-12-12T07:41:57.347Z,472.00
2018-12-12T07:42:57.313Z,488.00
2018-12-12T07:43:57.298Z,496.00
2018-12-12T07:44:57.299Z,492.00
2018-12-12T07:45:57.270Z,508.00
2018-12-12T07:46:57.259Z,500.00
2018-12-12T07:48:01.479Z,520.00
2018-12-12T07:48:57.241Z,532.00
2018-12-12T07:49:57.242Z,528.00
2018-12-12T07:50:57.217Z,536.00
2018-12-12T07:51:57.211Z,572.00
2018-12-12T07:52:57.232Z,588.00
2018-12-12T07:53:57.186Z,584.00
2018-12-12T07:54:57.176Z,640.00
2018-12-12T07:55:57.177Z,668.00
2018-12-12T07:56:57.161Z,680.00
2018-12-12T07:57:57.722Z,724.00
2018-12-12T07:58:57.134Z,772.00
2018-12-12T07:59:57.126Z,720.00
2018-12-12T08:00:57.114Z,720.00
2018-12-12T08:01:57.108Z,744.00
2018-12-12T08:02:57.113Z,740.00
2018-12-12T08:03:57.082Z,740.00
2018-12-12T08:04:57.073Z,712.00
2018-12-12T08:05:57.063Z,708.00
2018-12-12T08:06:57.068Z,728.00
2018-12-12T08:07:57.433Z,768.00
2018-12-12T08:08:57.119Z,764.00
2018-12-12T08:09:57.027Z,744.00
2018-12-12T08:10:57.007Z,732.00
2018-12-12T08:11:56.998Z,848.00
2018-12-12T08:12:57.006Z,912.00
2018-12-12T08:13:57.003Z,908.00
2018-12-12T08:14:56.959Z,992.00
2018-12-12T08:15:56.961Z,968.00
2018-12-12T08:16:57.064Z,876.00
2018-12-12T08:17:56.945Z,872.00
2018-12-12T08:18:56.940Z,948.00
2018-12-12T08:19:56.909Z,896.00
2018-12-12T08:20:56.933Z,836.00
2018-12-12T08:21:56.888Z,812.00
2018-12-12T08:22:56.901Z,880.00
2018-12-12T08:23:56.866Z,952.00
2018-12-12T08:24:56.859Z,904.00
2018-12-12T08:25:56.848Z,924.00
2018-12-12T08:26:56.837Z,964.00
2018-12-12T08:27:56.892Z,1004.00
2018-12-12T08:28:56.817Z,1012.00
2018-12-12T08:29:56.806Z,1056.00
2018-12-12T08:30:56.801Z,1072.00
2018-12-12T08:31:56.791Z,1080.00
2018-12-12T08:32:56.767Z,1124.00
2018-12-12T08:33:56.840Z,1220.00
2018-12-12T08:34:56.772Z,1164.00
2018-12-12T08:35:56.745Z,1160.00
2018-12-12T08:36:56.728Z,1172.00
2018-12-12T08:37:56.731Z,1236.00
2018-12-12T08:38:56.732Z,1280.00
2018-12-12T08:39:56.694Z,1256.00
2018-12-12T08:40:56.682Z,1140.00
2018-12-12T08:41:56.672Z,1220.00
2018-12-12T08:42:56.667Z,1216.00
2018-12-12T08:43:56.781Z,1188.00
2018-12-12T08:44:56.869Z,1196.00
2018-12-12T08:45:56.857Z,1160.00
2018-12-12T08:46:56.897Z,1152.00
2018-12-12T08:47:56.681Z,1236.00
2018-12-12T08:48:59.525Z,1360.00
2018-12-12T08:49:56.679Z,1380.00
2018-12-12T08:50:58.695Z,1420.00
2018-12-12T08:52:58.841Z,1268.00
2018-12-12T08:53:58.546Z,1492.00
2018-12-12T08:54:58.620Z,1428.00
2018-12-12T08:55:56.589Z,1304.00
2018-12-12T08:56:58.603Z,1208.00
2018-12-12T08:57:58.601Z,1140.00
2018-12-12T08:58:56.701Z,1372.00
2018-12-12T08:59:56.568Z,1532.00
2018-12-12T09:00:56.567Z,1356.00
2018-12-12T09:02:59.839Z,1444.00
2018-12-12T09:04:19.598Z,1468.00
2018-12-12T09:04:56.499Z,1508.00
2018-12-12T09:06:00.509Z,1552.00
2018-12-12T09:06:56.482Z,1580.00
2018-12-12T09:07:56.486Z,1556.00
2018-12-12T09:08:56.542Z,1704.00
2018-12-12T09:09:56.441Z,1848.00
2018-12-12T09:10:58.445Z,1704.00
2018-12-12T09:11:56.486Z,1716.00
2018-12-12T09:12:58.407Z,1776.00
2018-12-12T09:13:56.496Z,1880.00
2018-12-12T09:14:56.381Z,1916.00
2018-12-12T09:15:56.390Z,1884.00
2018-12-12T09:16:56.427Z,1980.00
2018-12-12T09:17:56.351Z,2052.00
2018-12-12T09:20:06.390Z,1996.00
2018-12-12T09:21:06.383Z,1924.00
2018-12-12T09:22:06.365Z,2044.00
2018-12-12T09:23:06.355Z,2100.00
2018-12-12T09:24:06.362Z,1928.00
2018-12-12T09:25:06.350Z,2084.00
2018-12-12T09:26:06.324Z,1900.00
2018-12-12T09:27:06.322Z,2076.00
2018-12-12T09:28:06.305Z,2012.00
2018-12-12T09:29:06.310Z,1776.00
2018-12-12T09:30:06.296Z,1784.00
2018-12-12T09:31:06.303Z,1856.00
2018-12-12T09:32:06.255Z,1788.00
2018-12-12T09:33:06.250Z,1928.00
2018-12-12T09:34:06.264Z,2120.00
2018-12-12T09:35:06.222Z,1884.00
2018-12-12T09:36:06.213Z,1828.00
2018-12-12T09:37:06.202Z,1976.00
2018-12-12T09:38:06.194Z,2108.00
2018-12-12T09:39:07.569Z,2212.00
2018-12-12T09:40:06.178Z,2444.00
2018-12-12T09:41:06.160Z,2724.00
2018-12-12T09:42:06.180Z,2804.00
2018-12-12T09:43:06.167Z,2796.00
2018-12-12T09:44:06.128Z,2928.00
2018-12-12T09:45:06.145Z,2844.00
2018-12-12T09:46:06.153Z,2824.00
2018-12-12T09:47:06.101Z,2908.00
2018-12-12T09:48:06.118Z,3136.00
2018-12-12T09:49:06.074Z,3096.00
2018-12-12T09:50:06.100Z,3232.00
2018-12-12T09:51:07.338Z,3248.00
2018-12-12T09:52:06.042Z,3120.00
2018-12-12T09:53:06.038Z,3116.00
2018-12-12T09:54:06.035Z,3164.00
2018-12-12T09:55:06.034Z,3168.00
2018-12-12T09:56:06.005Z,3152.00
2018-12-12T09:57:06.002Z,3324.00
2018-12-12T09:58:05.978Z,3356.00
2018-12-12T09:59:05.971Z,3436.00
2018-12-12T10:00:05.975Z,3088.00
2018-12-12T10:01:06.419Z,3184.00
2018-12-12T10:02:05.943Z,3124.00
2018-12-12T10:03:06.798Z,3224.00
2018-12-12T10:04:05.919Z,3084.00
2018-12-12T10:05:05.939Z,3004.00
2018-12-12T10:06:05.905Z,3060.00
2018-12-12T10:07:05.887Z,3036.00
2018-12-12T10:08:05.874Z,3152.00
2018-12-12T10:09:05.858Z,3216.00
2018-12-12T10:10:05.942Z,3176.00
2018-12-12T10:11:05.847Z,3052.00
2018-12-12T10:12:05.829Z,2588.00
2018-12-12T10:13:05.821Z,2052.00
2018-12-12T10:14:05.843Z,1920.00
2018-12-12T10:15:05.815Z,2036.00
2018-12-12T10:16:05.785Z,2296.00
2018-12-12T10:17:05.814Z,2228.00
2018-12-12T10:18:05.771Z,1976.00
2018-12-12T10:19:05.759Z,1672.00
2018-12-12T10:20:05.776Z,1860.00
2018-12-12T10:21:05.729Z,2188.00
2018-12-12T10:22:05.732Z,2192.00
2018-12-12T10:23:05.703Z,2224.00
2018-12-12T10:24:05.705Z,2288.00
2018-12-12T10:25:05.829Z,2184.00
2018-12-12T10:26:05.679Z,1968.00
2018-12-12T10:27:05.667Z,2040.00
2018-12-12T10:28:05.653Z,2320.00
2018-12-12T10:29:05.649Z,2896.00
2018-12-12T10:30:05.635Z,2800.00
2018-12-12T10:31:05.646Z,3032.00
2018-12-12T10:32:05.619Z,2812.00
2018-12-12T10:33:05.601Z,2928.00
2018-12-12T10:34:05.603Z,2864.00
2018-12-12T10:35:05.578Z,3064.00
2018-12-12T10:36:05.617Z,3352.00
2018-12-12T10:37:05.561Z,3328.00
2018-12-12T10:38:05.545Z,3376.00
2018-12-12T10:39:05.539Z,3344.00
2018-12-12T10:40:05.526Z,3492.00
2018-12-12T10:41:05.553Z,3664.00
2018-12-12T10:42:05.519Z,3936.00
2018-12-12T10:43:05.493Z,4360.00
2018-12-12T10:44:05.481Z,4288.00
2018-12-12T10:45:05.467Z,4072.00
2018-12-12T10:46:05.485Z,3696.00
2018-12-12T10:47:05.456Z,3952.00
2018-12-12T10:48:05.453Z,3712.00
2018-12-12T10:49:05.441Z,3400.00
2018-12-12T10:50:05.413Z,3788.00
2018-12-12T10:51:05.484Z,3992.00
2018-12-12T10:52:05.399Z,3888.00
2018-12-12T10:53:05.388Z,3524.00
2018-12-12T10:54:05.379Z,3404.00
2018-12-12T10:55:05.363Z,3652.00
2018-12-12T10:56:05.369Z,3752.00
2018-12-12T10:57:05.349Z,3332.00
2018-12-12T10:58:05.335Z,3208.00
2018-12-12T10:59:05.322Z,3400.00
2018-12-12T11:00:05.315Z,3116.00
2018-12-12T11:01:05.316Z,3188.00
2018-12-12T11:02:05.297Z,3188.00
2018-12-12T11:03:05.283Z,3352.00
2018-12-12T11:04:05.299Z,3832.00
2018-12-12T11:05:05.280Z,4164.00
2018-12-12T11:06:05.275Z,4476.00
2018-12-12T11:07:05.234Z,4532.00
2018-12-12T11:08:05.240Z,4748.00
2018-12-12T11:09:05.213Z,4644.00
2018-12-12T11:10:05.205Z,4472.00
2018-12-12T11:11:05.206Z,3876.00
2018-12-12T11:12:05.179Z,3444.00
2018-12-12T11:13:05.186Z,3804.00
2018-12-12T11:14:05.176Z,3868.00
2018-12-12T11:15:05.147Z,2980.00
2018-12-12T11:16:05.322Z,3080.00
2018-12-12T11:17:05.150Z,2868.00
2018-12-12T11:18:05.118Z,3300.00
2018-12-12T11:19:05.103Z,3536.00
2018-12-12T11:20:05.109Z,3640.00
2018-12-12T11:21:05.097Z,3848.00
2018-12-12T11:22:05.088Z,3864.00
2018-12-12T11:23:05.065Z,3132.00
2018-12-12T11:24:05.055Z,3076.00
2018-12-12T11:25:05.035Z,3332.00
2018-12-12T11:26:05.054Z,3352.00
2018-12-12T11:27:05.019Z,3308.00
2018-12-12T11:28:05.023Z,3412.00
2018-12-12T11:29:04.994Z,2976.00
2018-12-12T11:30:04.990Z,2632.00
2018-12-12T11:31:05.003Z,2640.00
2018-12-12T11:32:04.982Z,2600.00
2018-12-12T11:33:04.963Z,2584.00
2018-12-12T11:34:04.940Z,2952.00
2018-12-12T11:35:04.926Z,2784.00
2018-12-12T11:36:04.936Z,3076.00
2018-12-12T11:37:05.009Z,2828.00
2018-12-12T11:38:04.896Z,2536.00
2018-12-12T11:39:04.891Z,2432.00
2018-12-12T11:40:04.874Z,2696.00
2018-12-12T11:41:04.892Z,2656.00
2018-12-12T11:42:04.855Z,2696.00
2018-12-12T11:43:04.844Z,2364.00
2018-12-12T11:44:04.840Z,2200.00
2018-12-12T11:45:04.827Z,2172.00
2018-12-12T11:46:04.844Z,1996.00
2018-12-12T11:47:04.808Z,1632.00
2018-12-12T11:48:04.798Z,1440.00
2018-12-12T11:49:04.812Z,1608.00
2018-12-12T11:50:04.768Z,2008.00
2018-12-12T11:51:04.785Z,2256.00
2018-12-12T11:52:05.413Z,2688.00
2018-12-12T11:53:04.732Z,2904.00
2018-12-12T11:54:04.725Z,2716.00
2018-12-12T11:55:04.713Z,2892.00
2018-12-12T11:56:04.729Z,2716.00
2018-12-12T11:57:04.699Z,2688.00
2018-12-12T11:58:04.704Z,2568.00
2018-12-12T11:59:04.670Z,2576.00
2018-12-12T12:00:04.660Z,2772.00
2018-12-12T12:01:04.648Z,2716.00
2018-12-12T12:02:04.645Z,2432.00
2018-12-12T12:03:04.652Z,2424.00
2018-12-12T12:04:04.616Z,2780.00
2018-12-12T12:05:04.603Z,3164.00
2018-12-12T12:06:04.594Z,3040.00
2018-12-12T12:07:04.591Z,3032.00
2018-12-12T12:08:04.597Z,2972.00
2018-12-12T12:09:04.563Z,2968.00
2018-12-12T12:10:04.554Z,3000.00
2018-12-12T12:11:04.543Z,2984.00
2018-12-12T12:12:04.526Z,3004.00
2018-12-12T12:13:04.535Z,3204.00
2018-12-12T12:14:04.578Z,3324.00
2018-12-12T12:15:04.510Z,3360.00
2018-12-12T12:16:04.490Z,3224.00
2018-12-12T12:17:04.484Z,3132.00
2018-12-12T12:18:04.485Z,2996.00
2018-12-12T12:19:04.486Z,3052.00
2018-12-12T12:20:04.450Z,2976.00
2018-12-12T12:21:04.489Z,2552.00
2018-12-12T12:22:04.437Z,2076.00
2018-12-12T12:23:04.475Z,1800.00
2018-12-12T12:24:04.404Z,1904.00
2018-12-12T12:25:04.422Z,1772.00
2018-12-12T12:26:04.382Z,1920.00
2018-12-12T12:27:04.370Z,2028.00
2018-12-12T12:28:04.380Z,2132.00
2018-12-12T12:29:04.356Z,2252.00
2018-12-12T12:30:04.345Z,2504.00
2018-12-12T12:31:04.340Z,2780.00
2018-12-12T12:32:04.315Z,3280.00
2018-12-12T12:33:04.328Z,3560.00
2018-12-12T12:34:04.296Z,3552.00
2018-12-12T12:35:04.294Z,3284.00
2018-12-12T12:36:04.294Z,2832.00
2018-12-12T12:37:04.261Z,2828.00
2018-12-12T12:38:04.274Z,2428.00
2018-12-12T12:39:04.241Z,1892.00
2018-12-12T12:40:04.241Z,1428.00
2018-12-12T12:41:04.221Z,1308.00
2018-12-12T12:42:04.214Z,1416.00
2018-12-12T12:43:12.532Z,1348.00
2018-12-12T12:44:04.182Z,1352.00
2018-12-12T12:45:04.175Z,1344.00
2018-12-12T12:46:04.165Z,1388.00
2018-12-12T12:47:04.156Z,1464.00
2018-12-12T12:48:04.166Z,1488.00
2018-12-12T12:49:04.129Z,1532.00
2018-12-12T12:50:04.134Z,1580.00
2018-12-12T12:51:04.122Z,1644.00
2018-12-12T12:52:04.102Z,1596.00
2018-12-12T12:53:04.138Z,1540.00
2018-12-12T12:54:04.080Z,1484.00
2018-12-12T12:55:04.066Z,1500.00
2018-12-12T12:56:04.057Z,1636.00
2018-12-12T12:57:04.044Z,2256.00
2018-12-12T12:58:04.056Z,3248.00
2018-12-12T12:59:04.371Z,3860.00
2018-12-12T13:00:04.010Z,3708.00
2018-12-12T13:01:04.020Z,3356.00
2018-12-12T13:02:03.994Z,3580.00
2018-12-12T13:03:04.005Z,4560.00
2018-12-12T13:04:09.500Z,5024.00
2018-12-12T13:05:04.972Z,5348.00
2018-12-12T13:06:03.951Z,5164.00
2018-12-12T13:07:03.940Z,5028.00